NoMad, NY

6:54 AM EST on December 07, 2016 (GMT -0500)
Chelsea, West 28th St. | | Change Station

Elev 110 ft 40.75 °N, 73.99 °W | Updated 3 seconds ago

Overcast
Overcast
40.5 °F
Feels Like 40 °F
N
0.0
Wind Variable Wind from WSW
Gusts 0.0 mph

Today
High -- | Low -- °F
--% Chance of Precip.
Yesterday
High -- | Low -- °F
Precip. -- in
Pressure 29.93 in
Visibility 10.0 miles
Clouds Overcast 800 ft
Windchill 40 °F
Dew Point 37 °F
Humidity 87%
Rainfall 0.05 in
Snow Depth Not available.
7:06 AM 4:28 PM
First Quarter, 51% visible
METAR KNYC 071151Z AUTO VRB05KT 10SM OVC008 04/03 A2995 RMK AO2 SLP135 60008 70044 T00440028 10050 20044 53013 $
Pressure 29.93 in
Visibility 10.0 miles
Clouds Overcast 800 ft
Windchill 40 °F
Dew Point 37 °F
Humidity 87%
Rainfall 0.05 in
Snow Depth Not available.
7:06 AM 4:28 PM
First Quarter, 51% visible
METAR KNYC 071151Z AUTO VRB05KT 10SM OVC008 04/03 A2995 RMK AO2 SLP135 60008 70044 T00440028 10050 20044 53013 $

10-Day Weather Forecast

Almanac

Astronomy

Dec. 07, 2016 Rise Set
Actual Time
Civil Twilight
Nautical Twilight
Astronomical Twilight
Moon
Length of Visible Light
Length of Day
Tomorrow will be .
, % of the Moon is Illuminated

Today's Extremes

State Highs State Lows

Community

WunderPhotos

Upload Photos

1,956,111 photos uploaded!

WunderBlog® & News

Nearby

Air Quality

  Air Quality AQ Index Pollutant
Not available.

Snow Depth

Station Depth Elevation

Earthquake Activity

City Distance Mag. Time & Date
Minimum magnitude displayed is 2.5.

Coastal Water Temperatures

Place Temperature

Stations

Nearby Weather Stations

Station Location Temp. Windchill Dew Point Humidity Wind Precip. Elev Updated Type
                   

Watches & Warnings

There are currently no watches in effect.